createdAt,value
2019-02-08T00:02:21.472Z,39.70
2019-02-08T00:07:17.685Z,43.87
2019-02-08T00:12:13.453Z,39.40
2019-02-08T00:17:09.342Z,42.73
2019-02-08T00:22:08.006Z,41.77
2019-02-08T00:27:05.216Z,42.40
2019-02-08T00:32:01.101Z,44.03
2019-02-08T00:36:56.899Z,39.40
2019-02-08T00:41:52.621Z,36.47
2019-02-08T00:46:48.381Z,36.50
2019-02-08T00:51:44.167Z,38.53
2019-02-08T00:56:39.911Z,37.03
2019-02-08T01:01:35.949Z,40.07
2019-02-08T01:06:31.861Z,42.60
2019-02-08T01:11:28.146Z,48.53
2019-02-08T01:16:23.983Z,43.03
2019-02-08T01:21:19.738Z,45.47
2019-02-08T01:26:17.188Z,40.27
2019-02-08T01:31:13.081Z,43.47
2019-02-08T01:36:10.565Z,44.00
2019-02-08T01:41:08.492Z,40.47
2019-02-08T01:46:04.788Z,43.23
2019-02-08T01:51:00.556Z,40.63
2019-02-08T01:55:56.744Z,41.13
2019-02-08T02:00:52.610Z,43.13
2019-02-08T02:05:48.488Z,41.53
2019-02-08T02:10:47.895Z,39.97
2019-02-08T02:15:44.009Z,40.33
2019-02-08T02:20:40.899Z,40.97
2019-02-08T02:25:36.854Z,38.30
2019-02-08T02:30:34.368Z,37.47
2019-02-08T02:35:30.269Z,39.43
2019-02-08T02:40:26.194Z,39.27
2019-02-08T02:45:24.809Z,33.40
2019-02-08T02:50:21.777Z,40.47
2019-02-08T02:55:18.287Z,39.83
2019-02-08T03:00:17.647Z,35.10
2019-02-08T03:05:13.662Z,35.67
2019-02-08T03:10:11.405Z,35.67
2019-02-08T03:15:08.306Z,36.73
2019-02-08T03:20:04.582Z,33.10
2019-02-08T03:25:02.969Z,32.13
2019-02-08T03:29:58.798Z,32.97
2019-02-08T03:34:54.653Z,32.20
2019-02-08T03:39:52.083Z,31.97
2019-02-08T03:44:50.598Z,32.93
2019-02-08T03:49:46.367Z,35.57
2019-02-08T03:54:42.032Z,31.60
2019-02-08T03:59:37.756Z,33.83
2019-02-08T04:04:34.457Z,37.73
2019-02-08T04:09:30.168Z,30.10
2019-02-08T04:14:26.082Z,31.67
2019-02-08T04:19:24.696Z,32.03
2019-02-08T04:24:20.568Z,34.03
2019-02-08T04:29:17.437Z,35.20
2019-02-08T04:34:13.247Z,31.03
2019-02-08T04:39:12.208Z,31.90
2019-02-08T04:44:08.043Z,37.47
2019-02-08T04:49:04.272Z,41.33
2019-02-08T04:53:59.957Z,36.20
2019-02-08T04:58:55.740Z,40.47
2019-02-08T05:03:51.432Z,37.13
2019-02-08T05:08:47.168Z,34.90
2019-02-08T05:13:43.099Z,36.53
2019-02-08T05:18:38.840Z,36.10
2019-02-08T05:23:35.635Z,38.53
2019-02-08T05:28:32.436Z,31.80
2019-02-08T05:33:28.165Z,30.10
2019-02-08T05:38:23.826Z,33.13
2019-02-08T05:43:20.100Z,28.60
2019-02-08T05:48:16.263Z,35.37
2019-02-08T05:53:12.259Z,29.57
2019-02-08T05:58:08.254Z,33.97
2019-02-08T06:03:03.922Z,31.97
2019-02-08T06:07:58.755Z,36.20
2019-02-08T06:12:56.654Z,32.83
2019-02-08T06:17:52.734Z,31.83
2019-02-08T06:22:48.869Z,37.93
2019-02-08T06:27:44.887Z,35.70
2019-02-08T06:32:41.037Z,31.70
2019-02-08T06:37:43.990Z,30.33
2019-02-08T06:42:34.074Z,30.33
2019-02-08T06:47:29.859Z,34.20
2019-02-08T06:52:25.604Z,29.37
2019-02-08T06:57:52.518Z,37.40
2019-02-08T07:03:07.359Z,30.43
2019-02-08T07:08:29.249Z,32.93
2019-02-08T07:13:35.980Z,33.60
2019-02-08T07:18:39.699Z,141.43
2019-02-08T07:23:53.124Z,69.83
2019-02-08T07:29:06.195Z,37.03
2019-02-08T07:34:25.007Z,47.23
2019-02-08T07:39:37.950Z,63.33
2019-02-08T07:44:57.615Z,50.57
2019-02-08T07:50:11.087Z,39.73
2019-02-08T07:55:27.428Z,47.70
2019-02-08T08:00:37.244Z,44.80
2019-02-08T08:05:55.328Z,42.87
2019-02-08T08:11:19.206Z,43.03
2019-02-08T08:16:41.299Z,49.90
2019-02-08T08:21:59.345Z,48.20
2019-02-08T08:27:03.044Z,61.90
2019-02-08T08:32:13.732Z,59.37
2019-02-08T08:37:49.483Z,54.03
2019-02-08T08:42:57.434Z,42.97
2019-02-08T08:48:29.807Z,44.30
2019-02-08T08:54:05.264Z,37.80
2019-02-08T08:59:39.033Z,43.40
2019-02-08T09:05:04.296Z,43.17
2019-02-08T09:11:05.384Z,43.90
2019-02-08T09:16:28.412Z,37.83
2019-02-08T09:22:04.143Z,35.23
2019-02-08T09:27:55.337Z,33.57
2019-02-08T09:33:40.747Z,34.47
2019-02-08T09:39:17.628Z,29.83
2019-02-08T09:44:50.689Z,17.23
2019-02-08T09:50:33.054Z,24.10
2019-02-08T09:56:14.756Z,18.03
2019-02-08T10:01:35.598Z,19.63
2019-02-08T10:07:04.995Z,17.47
2019-02-08T10:12:49.567Z,17.50
2019-02-08T10:18:22.446Z,12.90
2019-02-08T10:23:54.293Z,14.63
2019-02-08T10:29:26.833Z,14.73
2019-02-08T10:34:52.576Z,13.30
2019-02-08T10:40:23.785Z,15.50
2019-02-08T10:45:54.803Z,19.53
2019-02-08T10:51:38.704Z,18.27
2019-02-08T10:57:24.647Z,20.20
2019-02-08T11:02:57.306Z,17.90
2019-02-08T11:08:48.474Z,21.53
2019-02-08T11:14:31.888Z,21.53
2019-02-08T11:19:25.986Z,15.97
2019-02-08T11:24:27.020Z,16.40
2019-02-08T11:29:23.209Z,16.17
2019-02-08T11:34:19.336Z,15.50
2019-02-08T11:39:22.228Z,13.80
2019-02-08T11:44:19.707Z,14.73
2019-02-08T11:49:15.851Z,15.33
2019-02-08T11:54:12.092Z,14.40
2019-02-08T11:59:08.460Z,14.23
2019-02-08T12:04:05.154Z,13.77
2019-02-08T12:09:01.215Z,17.73
2019-02-08T12:13:58.936Z,20.57
2019-02-08T12:18:55.235Z,17.83
2019-02-08T12:23:51.153Z,17.37
2019-02-08T12:28:47.455Z,16.57
2019-02-08T12:33:43.442Z,17.53
2019-02-08T12:38:39.861Z,14.13
2019-02-08T12:43:35.971Z,12.30
2019-02-08T12:48:31.984Z,13.00
2019-02-08T12:53:28.304Z,14.70
2019-02-08T12:58:26.702Z,16.67
2019-02-08T13:03:23.033Z,14.17
2019-02-08T13:08:19.322Z,16.33
2019-02-08T13:13:17.124Z,13.57
2019-02-08T13:18:13.378Z,11.63
2019-02-08T13:23:09.859Z,14.07
2019-02-08T13:28:06.275Z,11.87
2019-02-08T13:33:03.209Z,12.17
2019-02-08T13:37:59.408Z,12.00
2019-02-08T13:42:55.729Z,14.07
2019-02-08T13:47:51.927Z,16.93
2019-02-08T13:52:48.222Z,13.07
2019-02-08T13:57:44.107Z,14.40
2019-02-08T14:02:40.659Z,10.97
2019-02-08T14:07:36.918Z,14.03
2019-02-08T14:12:33.332Z,12.03
2019-02-08T14:17:29.455Z,10.73
2019-02-08T14:22:26.113Z,19.13
2019-02-08T14:27:22.485Z,11.03
2019-02-08T14:32:19.375Z,11.57
2019-02-08T14:37:15.332Z,11.50
2019-02-08T14:42:12.219Z,11.07
2019-02-08T14:47:07.924Z,12.30
2019-02-08T14:52:06.627Z,12.50
2019-02-08T14:57:03.421Z,20.97
2019-02-08T15:02:08.361Z,17.87
2019-02-08T15:07:10.413Z,15.70
2019-02-08T15:12:09.276Z,16.70
2019-02-08T15:17:07.040Z,14.63
2019-02-08T15:22:05.905Z,16.47
2019-02-08T15:27:05.068Z,19.17
2019-02-08T15:32:00.804Z,22.90
2019-02-08T15:36:59.961Z,37.63
2019-02-08T15:41:55.746Z,52.13
2019-02-08T15:46:51.460Z,48.37
2019-02-08T15:51:47.356Z,41.60
2019-02-08T15:56:43.310Z,59.57
2019-02-08T16:01:42.209Z,53.87
2019-02-08T16:06:39.990Z,51.30
2019-02-08T16:11:36.288Z,48.77
2019-02-08T16:16:32.190Z,33.40
2019-02-08T16:21:27.973Z,38.23
2019-02-08T16:26:26.095Z,39.27
2019-02-08T16:31:21.885Z,35.03
2019-02-08T16:36:17.682Z,51.90
2019-02-08T16:41:13.353Z,49.13
2019-02-08T16:46:09.282Z,46.37
2019-02-08T16:51:05.308Z,58.00
2019-02-08T16:56:01.180Z,45.40
2019-02-08T17:00:57.983Z,29.17
2019-02-08T17:05:53.937Z,25.47
2019-02-08T17:10:49.927Z,38.10
2019-02-08T17:15:45.871Z,69.90
2019-02-08T17:20:44.130Z,43.67
2019-02-08T17:25:40.203Z,38.47
2019-02-08T17:30:36.137Z,39.07
2019-02-08T17:35:31.998Z,36.73
2019-02-08T17:40:30.260Z,49.97
2019-02-08T17:45:26.641Z,44.67
2019-02-08T17:50:24.376Z,38.37
2019-02-08T17:55:21.394Z,35.27
2019-02-08T18:00:29.968Z,31.63
2019-02-08T18:05:25.967Z,68.97
2019-02-08T18:10:22.077Z,42.57
2019-02-08T18:15:23.212Z,54.13
2019-02-08T18:20:31.360Z,82.83
2019-02-08T18:25:28.331Z,45.53
2019-02-08T18:30:25.189Z,45.43
2019-02-08T18:35:21.626Z,51.80
2019-02-08T18:40:20.854Z,43.80
2019-02-08T18:45:19.552Z,40.53
2019-02-08T18:50:20.840Z,37.43
2019-02-08T18:55:16.905Z,38.57
2019-02-08T19:00:39.690Z,35.70
2019-02-08T19:05:30.957Z,44.57
2019-02-08T19:10:27.955Z,47.80
2019-02-08T19:15:24.610Z,44.37
2019-02-08T19:20:22.333Z,46.00
2019-02-08T19:25:23.710Z,37.90
2019-02-08T19:30:28.559Z,43.27
2019-02-08T19:35:24.728Z,48.93
2019-02-08T19:40:23.024Z,54.80
2019-02-08T19:45:19.325Z,47.93
2019-02-08T19:50:27.056Z,44.60
2019-02-08T19:55:24.139Z,42.10
2019-02-08T20:00:21.951Z,33.67
2019-02-08T20:05:20.817Z,33.83
2019-02-08T20:10:19.306Z,39.90
2019-02-08T20:15:17.231Z,33.87
2019-02-08T20:20:13.025Z,38.77
2019-02-08T20:25:12.433Z,34.63
2019-02-08T20:30:14.475Z,32.37
2019-02-08T20:35:13.066Z,35.87
2019-02-08T20:40:12.921Z,39.47
2019-02-08T20:45:13.014Z,32.10
2019-02-08T20:50:09.857Z,44.47
2019-02-08T20:55:07.641Z,39.90
2019-02-08T21:00:07.276Z,41.40
2019-02-08T21:05:08.259Z,33.70
2019-02-08T21:10:04.346Z,38.07
2019-02-08T21:15:00.209Z,40.30
2019-02-08T21:19:56.049Z,40.00
2019-02-08T21:24:51.970Z,40.77
2019-02-08T21:29:47.762Z,39.47
2019-02-08T21:34:43.507Z,39.77
2019-02-08T21:39:39.298Z,36.93
2019-02-08T21:44:35.262Z,43.60
2019-02-08T21:49:31.121Z,40.57
2019-02-08T21:54:26.919Z,49.50
2019-02-08T21:59:22.754Z,45.53
2019-02-08T22:04:19.473Z,42.57
2019-02-08T22:09:16.314Z,40.30
2019-02-08T22:14:12.203Z,44.23
2019-02-08T22:19:08.121Z,39.57
2019-02-08T22:24:04.140Z,39.20
2019-02-08T22:29:00.021Z,47.37
2019-02-08T22:33:57.792Z,46.07
2019-02-08T22:38:53.585Z,44.73
2019-02-08T22:43:49.357Z,40.13
2019-02-08T22:48:45.166Z,37.60
2019-02-08T22:53:41.087Z,45.97
2019-02-08T22:58:37.789Z,38.57
2019-02-08T23:03:34.565Z,41.27
2019-02-08T23:08:30.807Z,41.57
2019-02-08T23:13:28.189Z,39.37
2019-02-08T23:18:24.068Z,40.90
2019-02-08T23:23:19.813Z,36.77
2019-02-08T23:28:15.594Z,39.27
2019-02-08T23:33:11.603Z,39.27
2019-02-08T23:38:07.559Z,41.07
2019-02-08T23:43:05.642Z,50.00
2019-02-08T23:48:02.606Z,43.90
2019-02-08T23:52:58.491Z,46.83
2019-02-08T23:57:54.547Z,43.10
